UP1225 URFF-UAAA
Flight info
| Callsign | UP1225 |
|---|---|
| Flight time | N/A |
| Altitude | 38000 |
| Route | PALER B491 ANAKA/K0887F390 W70 KND/K0883F380 W70 AMEPU G364 ASTIB/K0885F390 G364 GAMTU G901 WGD/K0889F400 N72 NOKLI/K0882F390 N72 DUBOS W87 LIDUS/K0885F400 G242 ZG/K0883F390 G487 OBATA DCT KZO/K0895F410 DCT TOMGO M34 ALAKO T524 BEKRO |
| Aircraft | B772/H-SDE2E3FGHIJ5LORVWXY/LB1D1 |
Departure
| Time | N/A |
|---|---|
| Airport | URFF |
Arrival
| Time | 2026-05-04 14:05 |
|---|---|
| Airport | Almaty International Airport (UAAA) |
| Time | Latitude | Longitude | Altitude | Speed | Heading |
|---|---|---|---|---|---|
| 2026-05-04 09:28 | 45.03418 | 33.98350 | 611 ft | 0 kts | 14° |
| 2026-05-04 09:46 | 45.03313 | 33.98385 | 630 ft | 4 kts | 270° |
| 2026-05-04 09:46 | 45.03312 | 33.98418 | 628 ft | 1 kts | 283° |
| 2026-05-04 09:46 | 45.03312 | 33.98420 | 628 ft | 0 kts | 284° |
| 2026-05-04 09:49 | 45.03313 | 33.98412 | 627 ft | 3 kts | 284° |
| 2026-05-04 09:49 | 45.03321 | 33.98369 | 626 ft | 7 kts | 284° |
| 2026-05-04 09:49 | 45.03336 | 33.98284 | 628 ft | 10 kts | 284° |
| 2026-05-04 09:51 | 45.03440 | 33.97695 | 626 ft | 10 kts | 284° |
| 2026-05-04 09:51 | 45.03458 | 33.97597 | 620 ft | 10 kts | 284° |
| 2026-05-04 09:51 | 45.03475 | 33.97500 | 622 ft | 10 kts | 282° |
| 2026-05-04 09:51 | 45.03491 | 33.97402 | 622 ft | 10 kts | 284° |
| 2026-05-04 09:52 | 45.03508 | 33.97305 | 625 ft | 10 kts | 284° |
| 2026-05-04 09:52 | 45.03527 | 33.97207 | 627 ft | 10 kts | 292° |
| 2026-05-04 09:52 | 45.03590 | 33.97184 | 629 ft | 10 kts | 11° |
| 2026-05-04 09:52 | 45.03661 | 33.97204 | 629 ft | 11 kts | 14° |
| 2026-05-04 09:53 | 45.03760 | 33.97241 | 628 ft | 19 kts | 15° |
| 2026-05-04 09:53 | 45.03901 | 33.97290 | 623 ft | 21 kts | 14° |
| 2026-05-04 09:53 | 45.04045 | 33.97337 | 621 ft | 21 kts | 13° |
| 2026-05-04 09:53 | 45.04186 | 33.97386 | 623 ft | 21 kts | 14° |
| 2026-05-04 09:54 | 45.04330 | 33.97435 | 627 ft | 21 kts | 14° |
| 2026-05-04 09:54 | 45.04473 | 33.97484 | 630 ft | 21 kts | 13° |
| 2026-05-04 09:54 | 45.04617 | 33.97533 | 621 ft | 21 kts | 14° |
| 2026-05-04 09:54 | 45.04760 | 33.97582 | 622 ft | 21 kts | 14° |
| 2026-05-04 09:55 | 45.04903 | 33.97632 | 627 ft | 21 kts | 13° |
| 2026-05-04 09:55 | 45.05047 | 33.97682 | 628 ft | 21 kts | 13° |
| 2026-05-04 09:55 | 45.05191 | 33.97727 | 628 ft | 21 kts | 13° |
| 2026-05-04 09:55 | 45.05334 | 33.97777 | 621 ft | 21 kts | 14° |
| 2026-05-04 09:56 | 45.05479 | 33.97813 | 627 ft | 21 kts | 10° |
| 2026-05-04 09:56 | 45.05624 | 33.97853 | 623 ft | 21 kts | 12° |
| 2026-05-04 09:56 | 45.05769 | 33.97890 | 620 ft | 21 kts | 10° |
| 2026-05-04 09:56 | 45.05912 | 33.97929 | 628 ft | 21 kts | 10° |
| 2026-05-04 09:57 | 45.06059 | 33.97968 | 625 ft | 21 kts | 11° |
| 2026-05-04 09:57 | 45.06202 | 33.98003 | 631 ft | 21 kts | 10° |
| 2026-05-04 09:57 | 45.06348 | 33.98040 | 623 ft | 21 kts | 11° |
| 2026-05-04 09:57 | 45.06492 | 33.98081 | 622 ft | 21 kts | 12° |
| 2026-05-04 09:58 | 45.06637 | 33.98120 | 619 ft | 21 kts | 11° |
| 2026-05-04 09:58 | 45.06734 | 33.98157 | 627 ft | 13 kts | 12° |
| 2026-05-04 09:58 | 45.06785 | 33.98108 | 622 ft | 9 kts | 292° |
| 2026-05-04 10:00 | 45.06391 | 33.97769 | 618 ft | 90 kts | 191° |
| 2026-05-04 10:00 | 45.05486 | 33.97474 | 620 ft | 175 kts | 193° |
| 2026-05-04 10:02 | 44.95095 | 33.91050 | 6163 ft | 248 kts | 194° |
| 2026-05-04 10:04 | 44.82100 | 33.83496 | 11345 ft | 298 kts | 195° |
| 2026-05-04 10:04 | 44.80083 | 33.82992 | 11950 ft | 295 kts | 171° |
| 2026-05-04 10:04 | 44.78143 | 33.83758 | 12668 ft | 288 kts | 145° |
| 2026-05-04 10:04 | 44.76659 | 33.85608 | 13406 ft | 285 kts | 121° |
| 2026-05-04 10:05 | 44.75764 | 33.88077 | 14094 ft | 285 kts | 110° |
| 2026-05-04 10:05 | 44.75063 | 33.90692 | 14809 ft | 287 kts | 108° |
| 2026-05-04 10:05 | 44.74586 | 33.93406 | 15333 ft | 289 kts | 90° |
| 2026-05-04 10:05 | 44.74835 | 33.96222 | 15993 ft | 291 kts | 77° |
| 2026-05-04 10:06 | 44.75291 | 33.99008 | 16738 ft | 292 kts | 77° |
| 2026-05-04 10:06 | 44.75763 | 34.01791 | 17520 ft | 292 kts | 76° |
| 2026-05-04 10:06 | 44.76234 | 34.04580 | 18242 ft | 294 kts | 76° |
| 2026-05-04 10:08 | 44.79515 | 34.24164 | 19493 ft | 389 kts | 76° |
| 2026-05-04 10:08 | 44.80138 | 34.27905 | 19936 ft | 395 kts | 76° |
| 2026-05-04 10:08 | 44.80765 | 34.31681 | 20515 ft | 397 kts | 76° |
| 2026-05-04 10:08 | 44.81393 | 34.35470 | 21093 ft | 399 kts | 77° |
| 2026-05-04 10:09 | 44.82024 | 34.39296 | 21591 ft | 402 kts | 77° |
| 2026-05-04 10:09 | 44.82659 | 34.43146 | 22124 ft | 404 kts | 77° |
| 2026-05-04 10:09 | 44.83297 | 34.47023 | 22665 ft | 407 kts | 77° |
| 2026-05-04 10:09 | 44.83938 | 34.50922 | 23172 ft | 410 kts | 77° |
| 2026-05-04 10:10 | 44.84581 | 34.54848 | 23656 ft | 413 kts | 77° |
| 2026-05-04 10:10 | 44.85229 | 34.58808 | 24081 ft | 416 kts | 77° |
| 2026-05-04 10:10 | 44.85879 | 34.62792 | 24508 ft | 418 kts | 77° |
| 2026-05-04 10:10 | 44.86531 | 34.66804 | 24884 ft | 422 kts | 77° |
| 2026-05-04 10:11 | 44.87189 | 34.70864 | 25195 ft | 427 kts | 77° |
| 2026-05-04 10:11 | 44.87853 | 34.74965 | 25633 ft | 430 kts | 77° |
| 2026-05-04 10:11 | 44.88518 | 34.79085 | 26114 ft | 432 kts | 77° |
| 2026-05-04 10:11 | 44.89175 | 34.83171 | 26544 ft | 434 kts | 77° |
| 2026-05-04 10:12 | 44.89842 | 34.87315 | 27085 ft | 433 kts | 77° |
| 2026-05-04 10:12 | 44.90508 | 34.91458 | 27539 ft | 434 kts | 77° |
| 2026-05-04 10:12 | 44.91173 | 34.95629 | 27902 ft | 437 kts | 77° |
| 2026-05-04 10:12 | 44.91843 | 34.99830 | 28250 ft | 440 kts | 78° |
| 2026-05-04 10:13 | 44.92515 | 35.04062 | 28596 ft | 443 kts | 78° |
| 2026-05-04 10:13 | 44.93190 | 35.08324 | 28954 ft | 445 kts | 78° |
| 2026-05-04 10:13 | 44.93868 | 35.12604 | 29230 ft | 449 kts | 78° |
| 2026-05-04 10:13 | 44.94549 | 35.16918 | 29420 ft | 453 kts | 78° |
| 2026-05-04 10:14 | 44.95234 | 35.21268 | 29699 ft | 454 kts | 78° |
| 2026-05-04 10:14 | 44.95919 | 35.25628 | 30003 ft | 456 kts | 78° |
| 2026-05-04 10:16 | 45.00621 | 35.55896 | 32648 ft | 448 kts | 79° |
| 2026-05-04 10:16 | 45.01283 | 35.60200 | 32899 ft | 449 kts | 79° |
| 2026-05-04 10:16 | 45.01944 | 35.64512 | 33168 ft | 449 kts | 79° |
| 2026-05-04 10:16 | 45.02603 | 35.68825 | 33492 ft | 448 kts | 79° |
| 2026-05-04 10:17 | 45.03260 | 35.73135 | 33832 ft | 447 kts | 80° |
| 2026-05-04 10:17 | 45.03914 | 35.77433 | 34134 ft | 447 kts | 80° |
| 2026-05-04 10:19 | 45.08237 | 36.06169 | 35834 ft | 449 kts | 80° |
| 2026-05-04 10:19 | 45.08883 | 36.10502 | 36085 ft | 450 kts | 80° |
| 2026-05-04 10:19 | 45.09527 | 36.14839 | 36299 ft | 450 kts | 80° |
| 2026-05-04 10:19 | 45.10169 | 36.19178 | 36521 ft | 451 kts | 80° |
| 2026-05-04 10:20 | 45.11019 | 36.24931 | 36831 ft | 451 kts | 80° |
| 2026-05-04 10:20 | 45.11453 | 36.27881 | 37025 ft | 451 kts | 80° |
| 2026-05-04 10:20 | 45.12092 | 36.32233 | 37277 ft | 452 kts | 80° |
| 2026-05-04 10:20 | 45.12731 | 36.36597 | 37515 ft | 453 kts | 80° |
| 2026-05-04 10:21 | 45.13368 | 36.40960 | 37721 ft | 453 kts | 80° |
| 2026-05-04 10:21 | 45.13998 | 36.45288 | 37828 ft | 452 kts | 80° |
| 2026-05-04 10:21 | 45.14625 | 36.49588 | 37837 ft | 440 kts | 80° |
| 2026-05-04 10:21 | 45.15232 | 36.53771 | 37859 ft | 427 kts | 81° |
| 2026-05-04 10:22 | 45.16973 | 36.66104 | 37925 ft | 425 kts | 81° |
| 2026-05-04 10:23 | 45.18129 | 36.74441 | 37922 ft | 437 kts | 81° |
| 2026-05-04 10:25 | 45.22948 | 37.09515 | 37914 ft | 465 kts | 81° |
| 2026-05-04 10:25 | 45.24174 | 37.18560 | 37912 ft | 469 kts | 81° |
| 2026-05-04 10:26 | 45.25401 | 37.27675 | 37885 ft | 471 kts | 81° |
| 2026-05-04 10:26 | 45.26619 | 37.36775 | 37902 ft | 472 kts | 81° |
| 2026-05-04 10:27 | 45.27837 | 37.45936 | 37889 ft | 472 kts | 82° |
| 2026-05-04 10:27 | 45.29046 | 37.55092 | 37900 ft | 471 kts | 82° |
| 2026-05-04 10:28 | 45.30248 | 37.64253 | 37912 ft | 471 kts | 82° |
| 2026-05-04 10:28 | 45.31438 | 37.73390 | 37908 ft | 470 kts | 82° |
| 2026-05-04 10:29 | 45.32621 | 37.82526 | 37915 ft | 469 kts | 82° |
| 2026-05-04 10:29 | 45.33796 | 37.91661 | 37892 ft | 469 kts | 82° |
| 2026-05-04 10:30 | 45.34954 | 38.00730 | 37920 ft | 469 kts | 82° |
| 2026-05-04 10:30 | 45.36118 | 38.09898 | 37922 ft | 470 kts | 82° |
| 2026-05-04 10:31 | 45.37274 | 38.19067 | 37931 ft | 471 kts | 82° |
| 2026-05-04 10:32 | 45.41265 | 38.51219 | 37924 ft | 473 kts | 83° |
| 2026-05-04 10:33 | 45.42400 | 38.60474 | 37951 ft | 478 kts | 83° |
| 2026-05-04 10:33 | 45.43534 | 38.69829 | 37932 ft | 478 kts | 82° |
| 2026-05-04 10:34 | 45.44663 | 38.79204 | 37927 ft | 479 kts | 83° |
| 2026-05-04 10:34 | 45.45770 | 38.88464 | 37924 ft | 476 kts | 83° |
| 2026-05-04 10:35 | 45.46873 | 38.97748 | 37938 ft | 474 kts | 83° |
| 2026-05-04 10:35 | 45.47965 | 39.07003 | 37939 ft | 472 kts | 83° |
| 2026-05-04 10:36 | 45.49047 | 39.16246 | 37945 ft | 473 kts | 83° |
| 2026-05-04 10:36 | 45.50116 | 39.25444 | 37939 ft | 473 kts | 83° |
| 2026-05-04 10:37 | 45.51185 | 39.34715 | 37940 ft | 474 kts | 83° |
| 2026-05-04 10:37 | 45.52251 | 39.44019 | 37949 ft | 476 kts | 83° |
| 2026-05-04 10:39 | 45.55939 | 39.76773 | 37950 ft | 479 kts | 83° |
| 2026-05-04 10:40 | 45.56979 | 39.86165 | 37951 ft | 479 kts | 84° |
| 2026-05-04 10:40 | 45.58013 | 39.95578 | 37953 ft | 480 kts | 84° |
| 2026-05-04 10:41 | 45.59034 | 40.04952 | 37954 ft | 480 kts | 84° |
| 2026-05-04 10:41 | 45.60054 | 40.14390 | 37959 ft | 480 kts | 84° |
| 2026-05-04 10:42 | 45.61067 | 40.23841 | 37971 ft | 481 kts | 84° |
| 2026-05-04 10:42 | 45.62072 | 40.33291 | 37938 ft | 481 kts | 84° |
| 2026-05-04 10:43 | 45.63069 | 40.42748 | 37981 ft | 482 kts | 84° |
| 2026-05-04 10:45 | 45.66996 | 40.80719 | 37956 ft | 479 kts | 84° |
| 2026-05-04 10:45 | 45.67948 | 40.90132 | 37966 ft | 477 kts | 84° |
| 2026-05-04 10:46 | 45.68890 | 40.99526 | 37951 ft | 477 kts | 84° |
| 2026-05-04 10:46 | 45.69817 | 41.08853 | 37964 ft | 478 kts | 84° |
| 2026-05-04 10:47 | 45.70747 | 41.18289 | 37962 ft | 480 kts | 84° |
| 2026-05-04 10:47 | 45.71675 | 41.27779 | 37976 ft | 482 kts | 84° |
| 2026-05-04 10:49 | 45.75345 | 41.66167 | 37960 ft | 490 kts | 84° |
| 2026-05-04 10:50 | 45.76252 | 41.75876 | 37948 ft | 492 kts | 84° |
| 2026-05-04 10:52 | 45.79803 | 42.14796 | 37960 ft | 492 kts | 85° |
| 2026-05-04 10:52 | 45.80668 | 42.24504 | 37952 ft | 491 kts | 85° |
| 2026-05-04 10:54 | 45.84040 | 42.63337 | 37976 ft | 491 kts | 85° |
| 2026-05-04 10:56 | 45.87290 | 43.02330 | 37972 ft | 495 kts | 85° |
| 2026-05-04 10:57 | 45.88085 | 43.12127 | 37951 ft | 497 kts | 85° |
| 2026-05-04 10:57 | 45.88877 | 43.21977 | 37956 ft | 495 kts | 86° |
| 2026-05-04 10:58 | 45.89657 | 43.31793 | 37972 ft | 493 kts | 86° |
| 2026-05-04 10:58 | 45.90422 | 43.41523 | 37971 ft | 493 kts | 86° |
| 2026-05-04 10:59 | 45.91180 | 43.51295 | 37958 ft | 492 kts | 86° |
| 2026-05-04 10:59 | 45.91931 | 43.61073 | 37975 ft | 493 kts | 86° |
| 2026-05-04 11:00 | 45.92674 | 43.70864 | 37962 ft | 493 kts | 86° |
| 2026-05-04 11:02 | 45.95571 | 44.10164 | 37973 ft | 496 kts | 86° |
| 2026-05-04 11:05 | 46.00559 | 44.82720 | 37954 ft | 498 kts | 87° |
| 2026-05-04 11:06 | 46.01311 | 44.94278 | 37968 ft | 499 kts | 87° |
| 2026-05-04 11:06 | 46.01841 | 45.02547 | 37960 ft | 499 kts | 87° |
| 2026-05-04 11:10 | 46.06081 | 45.72432 | 37955 ft | 503 kts | 88° |
| 2026-05-04 11:12 | 46.08321 | 46.12568 | 37950 ft | 503 kts | 88° |
| 2026-05-04 11:12 | 46.08859 | 46.22613 | 37943 ft | 503 kts | 88° |
| 2026-05-04 11:13 | 46.09390 | 46.32680 | 37947 ft | 504 kts | 88° |
| 2026-05-04 11:13 | 46.09912 | 46.42760 | 37944 ft | 504 kts | 88° |
| 2026-05-04 11:14 | 46.09996 | 46.44389 | 37947 ft | 504 kts | 88° |
| 2026-05-04 11:16 | 46.12393 | 46.93246 | 37943 ft | 507 kts | 89° |
| 2026-05-04 11:16 | 46.12863 | 47.03339 | 37944 ft | 508 kts | 89° |
| 2026-05-04 11:17 | 46.13325 | 47.13497 | 37941 ft | 508 kts | 89° |
| 2026-05-04 11:19 | 46.15091 | 47.54239 | 37939 ft | 510 kts | 89° |
| 2026-05-04 11:19 | 46.15511 | 47.64453 | 37936 ft | 510 kts | 89° |
| 2026-05-04 11:20 | 46.15922 | 47.74670 | 37930 ft | 511 kts | 89° |
| 2026-05-04 11:20 | 46.16325 | 47.84918 | 37941 ft | 511 kts | 89° |
| 2026-05-04 11:22 | 46.17847 | 48.25949 | 37932 ft | 513 kts | 89° |
| 2026-05-04 11:23 | 46.18205 | 48.36248 | 37935 ft | 514 kts | 90° |
| 2026-05-04 11:24 | 46.20866 | 48.66913 | 37923 ft | 521 kts | 72° |
| 2026-05-04 11:25 | 46.22191 | 48.71780 | 37907 ft | 521 kts | 69° |
| 2026-05-04 11:25 | 46.25025 | 48.81445 | 37920 ft | 522 kts | 68° |
| 2026-05-04 11:27 | 46.35642 | 49.25866 | 37922 ft | 518 kts | 89° |
| 2026-05-04 11:28 | 46.35463 | 49.36252 | 37924 ft | 515 kts | 95° |
| 2026-05-04 11:28 | 46.35073 | 49.46626 | 37906 ft | 516 kts | 95° |
| 2026-05-04 11:29 | 46.34706 | 49.56998 | 37921 ft | 515 kts | 95° |
| 2026-05-04 11:29 | 46.34367 | 49.67372 | 37921 ft | 516 kts | 95° |
| 2026-05-04 11:33 | 46.31805 | 50.39822 | 37906 ft | 515 kts | 95° |
| 2026-05-04 11:33 | 46.31400 | 50.50167 | 37898 ft | 514 kts | 95° |
| 2026-05-04 11:34 | 46.30987 | 50.60495 | 37899 ft | 514 kts | 95° |
| 2026-05-04 11:34 | 46.30565 | 50.70819 | 37896 ft | 514 kts | 96° |
| 2026-05-04 11:35 | 46.30135 | 50.81085 | 37881 ft | 514 kts | 96° |
| 2026-05-04 11:35 | 46.29695 | 50.91402 | 37888 ft | 514 kts | 96° |
| 2026-05-04 11:36 | 46.29245 | 51.01729 | 38073 ft | 515 kts | 96° |
| 2026-05-04 11:36 | 46.29017 | 51.06890 | 38270 ft | 514 kts | 96° |
| 2026-05-04 11:36 | 46.28787 | 51.12057 | 38458 ft | 513 kts | 96° |
| 2026-05-04 11:37 | 46.28317 | 51.22391 | 38600 ft | 516 kts | 96° |
| 2026-05-04 11:37 | 46.28077 | 51.27572 | 38708 ft | 515 kts | 96° |
| 2026-05-04 11:37 | 46.27837 | 51.32739 | 38789 ft | 515 kts | 96° |
| 2026-05-04 11:38 | 46.27348 | 51.43080 | 38869 ft | 516 kts | 96° |
| 2026-05-04 11:38 | 46.26851 | 51.53390 | 38888 ft | 518 kts | 96° |
| 2026-05-04 11:39 | 46.26339 | 51.63810 | 38887 ft | 520 kts | 96° |
| 2026-05-04 11:41 | 46.24467 | 52.00412 | 38882 ft | 522 kts | 96° |
| 2026-05-04 11:41 | 46.23910 | 52.10877 | 38885 ft | 522 kts | 96° |
| 2026-05-04 11:42 | 46.23343 | 52.21341 | 38884 ft | 522 kts | 96° |
| 2026-05-04 11:42 | 46.22771 | 52.31730 | 38876 ft | 522 kts | 96° |
| 2026-05-04 11:43 | 46.22185 | 52.42187 | 38888 ft | 522 kts | 96° |
| 2026-05-04 11:43 | 46.21590 | 52.52633 | 38869 ft | 522 kts | 96° |
| 2026-05-04 11:44 | 46.20987 | 52.63072 | 38883 ft | 521 kts | 96° |
| 2026-05-04 11:44 | 46.20377 | 52.73451 | 38880 ft | 522 kts | 97° |
| 2026-05-04 11:45 | 46.19753 | 52.83900 | 38875 ft | 522 kts | 96° |
| 2026-05-04 11:45 | 46.19120 | 52.94340 | 38875 ft | 522 kts | 97° |
| 2026-05-04 11:46 | 46.18478 | 53.04777 | 38860 ft | 522 kts | 96° |
| 2026-05-04 11:46 | 46.17827 | 53.15199 | 38870 ft | 521 kts | 97° |
| 2026-05-04 11:47 | 46.17170 | 53.25556 | 38876 ft | 521 kts | 97° |
| 2026-05-04 11:47 | 46.16502 | 53.35970 | 38878 ft | 521 kts | 96° |
| 2026-05-04 11:48 | 46.16314 | 53.46424 | 38874 ft | 521 kts | 90° |
| 2026-05-04 11:48 | 46.16402 | 53.56876 | 38871 ft | 521 kts | 90° |
| 2026-05-04 11:49 | 46.16474 | 53.67323 | 38856 ft | 520 kts | 91° |
| 2026-05-04 11:49 | 46.16491 | 53.77760 | 38867 ft | 520 kts | 91° |
| 2026-05-04 11:50 | 46.16477 | 53.88196 | 38876 ft | 520 kts | 91° |
| 2026-05-04 11:50 | 46.16452 | 53.98638 | 38871 ft | 520 kts | 91° |
| 2026-05-04 11:51 | 46.16420 | 54.08995 | 38874 ft | 519 kts | 91° |
| 2026-05-04 11:51 | 46.16381 | 54.19411 | 38879 ft | 519 kts | 91° |
| 2026-05-04 11:52 | 46.16332 | 54.29827 | 38876 ft | 519 kts | 91° |
| 2026-05-04 11:52 | 46.16274 | 54.40232 | 38877 ft | 518 kts | 91° |
| 2026-05-04 11:53 | 46.16206 | 54.50643 | 38875 ft | 519 kts | 91° |
| 2026-05-04 11:53 | 46.16129 | 54.61054 | 38890 ft | 519 kts | 92° |
| 2026-05-04 11:55 | 46.15725 | 55.02773 | 39462 ft | 522 kts | 92° |
| 2026-05-04 11:56 | 46.15622 | 55.11481 | 39597 ft | 523 kts | 92° |
| 2026-05-04 11:56 | 46.15556 | 55.16724 | 39703 ft | 523 kts | 92° |
| 2026-05-04 11:56 | 46.15488 | 55.21967 | 39811 ft | 523 kts | 92° |
| 2026-05-04 11:57 | 46.15345 | 55.32445 | 39993 ft | 523 kts | 92° |
| 2026-05-04 11:57 | 46.15193 | 55.42927 | 40267 ft | 521 kts | 92° |
| 2026-05-04 11:57 | 46.15113 | 55.48162 | 40404 ft | 520 kts | 92° |
| 2026-05-04 11:58 | 46.15032 | 55.53374 | 40495 ft | 520 kts | 92° |
| 2026-05-04 11:58 | 46.14861 | 55.63813 | 40651 ft | 521 kts | 92° |
| 2026-05-04 11:59 | 46.14680 | 55.74255 | 40823 ft | 521 kts | 92° |
| 2026-05-04 11:59 | 46.14490 | 55.84697 | 40897 ft | 521 kts | 92° |
| 2026-05-04 12:00 | 46.14291 | 55.95111 | 40900 ft | 523 kts | 92° |
| 2026-05-04 12:00 | 46.14081 | 56.05614 | 40907 ft | 525 kts | 92° |
| 2026-05-04 12:01 | 46.13868 | 56.16147 | 40903 ft | 526 kts | 93° |
| 2026-05-04 12:02 | 46.13026 | 56.53053 | 40901 ft | 525 kts | 93° |
| 2026-05-04 12:03 | 46.12762 | 56.63556 | 40906 ft | 524 kts | 93° |
| 2026-05-04 12:03 | 46.12490 | 56.74041 | 40899 ft | 523 kts | 93° |
| 2026-05-04 12:04 | 46.12210 | 56.84436 | 40903 ft | 522 kts | 93° |
| 2026-05-04 12:04 | 46.11919 | 56.94878 | 40898 ft | 521 kts | 93° |
| 2026-05-04 12:05 | 46.11619 | 57.05307 | 40892 ft | 520 kts | 94° |
| 2026-05-04 12:05 | 46.11311 | 57.15717 | 40899 ft | 519 kts | 94° |
| 2026-05-04 12:06 | 46.10993 | 57.26109 | 40891 ft | 515 kts | 94° |
| 2026-05-04 12:06 | 46.10671 | 57.36366 | 40887 ft | 509 kts | 94° |
| 2026-05-04 12:07 | 46.10342 | 57.46517 | 40893 ft | 506 kts | 94° |
| 2026-05-04 12:07 | 46.10006 | 57.56625 | 40895 ft | 504 kts | 94° |
| 2026-05-04 12:08 | 46.09661 | 57.66702 | 40896 ft | 503 kts | 94° |
| 2026-05-04 12:08 | 46.09310 | 57.76717 | 40903 ft | 505 kts | 94° |
| 2026-05-04 12:09 | 46.08946 | 57.86854 | 40913 ft | 507 kts | 94° |
| 2026-05-04 12:09 | 46.08572 | 57.97021 | 40921 ft | 509 kts | 94° |
| 2026-05-04 12:10 | 46.08187 | 58.07238 | 40923 ft | 511 kts | 94° |
| 2026-05-04 12:10 | 46.07792 | 58.17478 | 40922 ft | 513 kts | 94° |
| 2026-05-04 12:11 | 46.07386 | 58.27747 | 40937 ft | 514 kts | 94° |
| 2026-05-04 12:11 | 46.06972 | 58.38016 | 40919 ft | 514 kts | 94° |
| 2026-05-04 12:12 | 46.06548 | 58.48280 | 40944 ft | 513 kts | 94° |
| 2026-05-04 12:12 | 46.06116 | 58.58519 | 40945 ft | 512 kts | 94° |
| 2026-05-04 12:14 | 46.04305 | 58.99294 | 40958 ft | 509 kts | 95° |
| 2026-05-04 12:15 | 46.03831 | 59.09446 | 40959 ft | 508 kts | 95° |
| 2026-05-04 12:15 | 46.03348 | 59.19597 | 40966 ft | 508 kts | 95° |
| 2026-05-04 12:16 | 46.02859 | 59.29684 | 40979 ft | 508 kts | 95° |
| 2026-05-04 12:16 | 46.02359 | 59.39829 | 40975 ft | 508 kts | 95° |
| 2026-05-04 12:17 | 46.01849 | 59.49972 | 40976 ft | 508 kts | 95° |
| 2026-05-04 12:17 | 46.01330 | 59.60118 | 40981 ft | 508 kts | 95° |
| 2026-05-04 12:18 | 46.00801 | 59.70284 | 40974 ft | 509 kts | 95° |
| 2026-05-04 12:18 | 46.00267 | 59.80374 | 40984 ft | 509 kts | 95° |
| 2026-05-04 12:19 | 45.99721 | 59.90528 | 40982 ft | 509 kts | 95° |
| 2026-05-04 12:19 | 45.99164 | 60.00706 | 40981 ft | 509 kts | 95° |
| 2026-05-04 12:20 | 45.98602 | 60.10807 | 40988 ft | 510 kts | 96° |
| 2026-05-04 12:20 | 45.98028 | 60.20966 | 40988 ft | 510 kts | 96° |
| 2026-05-04 12:21 | 45.97444 | 60.31142 | 40977 ft | 510 kts | 96° |
| 2026-05-04 12:21 | 45.96852 | 60.41300 | 40976 ft | 510 kts | 96° |
| 2026-05-04 12:22 | 45.96254 | 60.51399 | 40979 ft | 509 kts | 96° |
| 2026-05-04 12:22 | 45.95644 | 60.61559 | 40975 ft | 509 kts | 96° |
| 2026-05-04 12:23 | 45.95025 | 60.71707 | 40974 ft | 509 kts | 96° |
| 2026-05-04 12:23 | 45.94397 | 60.81842 | 40976 ft | 509 kts | 96° |
| 2026-05-04 12:24 | 45.93764 | 60.91923 | 40975 ft | 509 kts | 96° |
| 2026-05-04 12:24 | 45.93118 | 61.02064 | 40971 ft | 509 kts | 96° |
| 2026-05-04 12:25 | 45.92463 | 61.12216 | 40973 ft | 509 kts | 96° |
| 2026-05-04 12:25 | 45.91804 | 61.22272 | 40978 ft | 509 kts | 96° |
| 2026-05-04 12:26 | 45.91132 | 61.32396 | 40978 ft | 509 kts | 96° |
| 2026-05-04 12:26 | 45.90452 | 61.42511 | 40978 ft | 508 kts | 96° |
| 2026-05-04 12:27 | 45.89763 | 61.52610 | 40978 ft | 508 kts | 96° |
| 2026-05-04 12:27 | 45.89069 | 61.62658 | 40977 ft | 508 kts | 96° |
| 2026-05-04 12:28 | 45.88363 | 61.72756 | 40977 ft | 508 kts | 96° |
| 2026-05-04 12:28 | 45.87648 | 61.82850 | 40982 ft | 508 kts | 96° |
| 2026-05-04 12:29 | 45.86924 | 61.92926 | 40981 ft | 508 kts | 97° |
| 2026-05-04 12:29 | 45.86191 | 62.03015 | 40983 ft | 508 kts | 97° |
| 2026-05-04 12:30 | 45.85451 | 62.13084 | 40984 ft | 508 kts | 97° |
| 2026-05-04 12:30 | 45.84701 | 62.23156 | 40989 ft | 508 kts | 97° |
| 2026-05-04 12:31 | 45.83942 | 62.33225 | 40984 ft | 508 kts | 97° |
| 2026-05-04 12:31 | 45.83179 | 62.43236 | 40983 ft | 508 kts | 97° |
| 2026-05-04 12:32 | 45.82009 | 62.58355 | 40988 ft | 508 kts | 97° |
| 2026-05-04 12:33 | 45.81217 | 62.68439 | 40987 ft | 508 kts | 97° |
| 2026-05-04 12:33 | 45.80418 | 62.78507 | 40986 ft | 508 kts | 97° |
| 2026-05-04 12:34 | 45.79614 | 62.88522 | 40987 ft | 508 kts | 97° |
| 2026-05-04 12:34 | 45.78796 | 62.98590 | 40985 ft | 508 kts | 97° |
| 2026-05-04 12:35 | 45.77970 | 63.08657 | 40991 ft | 508 kts | 97° |
| 2026-05-04 12:35 | 45.77134 | 63.18719 | 40987 ft | 508 kts | 97° |
| 2026-05-04 12:36 | 45.76291 | 63.28776 | 40987 ft | 508 kts | 97° |
| 2026-05-04 12:36 | 45.75439 | 63.38820 | 40987 ft | 508 kts | 97° |
| 2026-05-04 12:37 | 45.74582 | 63.48816 | 40988 ft | 508 kts | 97° |
| 2026-05-04 12:37 | 45.73711 | 63.58874 | 40986 ft | 508 kts | 97° |
| 2026-05-04 12:38 | 45.72832 | 63.68913 | 40986 ft | 508 kts | 97° |
| 2026-05-04 12:38 | 45.71944 | 63.78956 | 40983 ft | 508 kts | 97° |
| 2026-05-04 12:39 | 45.71048 | 63.88989 | 40980 ft | 509 kts | 98° |
| 2026-05-04 12:39 | 45.70143 | 63.99021 | 40983 ft | 509 kts | 98° |
| 2026-05-04 12:40 | 45.69227 | 64.09067 | 40991 ft | 509 kts | 98° |
| 2026-05-04 12:40 | 45.68309 | 64.19045 | 40986 ft | 509 kts | 98° |
| 2026-05-04 12:41 | 45.67375 | 64.29096 | 40968 ft | 509 kts | 98° |
| 2026-05-04 12:41 | 45.66433 | 64.39131 | 40981 ft | 509 kts | 98° |
| 2026-05-04 12:42 | 45.65483 | 64.49162 | 40980 ft | 509 kts | 98° |
| 2026-05-04 12:42 | 45.64523 | 64.59192 | 40983 ft | 509 kts | 98° |
| 2026-05-04 12:43 | 45.63719 | 64.67520 | 40981 ft | 509 kts | 98° |
| 2026-05-04 12:43 | 45.62744 | 64.77538 | 40979 ft | 509 kts | 98° |
| 2026-05-04 12:44 | 45.61601 | 64.89169 | 40982 ft | 509 kts | 98° |
| 2026-05-04 12:44 | 45.60769 | 64.97559 | 40973 ft | 508 kts | 98° |
| 2026-05-04 12:45 | 45.59769 | 65.07553 | 40987 ft | 508 kts | 98° |
| 2026-05-04 12:45 | 45.58766 | 65.17485 | 40976 ft | 508 kts | 98° |
| 2026-05-04 12:46 | 45.57749 | 65.27470 | 40981 ft | 508 kts | 98° |
| 2026-05-04 12:46 | 45.56724 | 65.37443 | 40979 ft | 508 kts | 98° |
| 2026-05-04 12:47 | 45.55688 | 65.47433 | 40983 ft | 508 kts | 98° |
| 2026-05-04 12:47 | 45.54646 | 65.57395 | 40983 ft | 508 kts | 98° |
| 2026-05-04 12:48 | 45.53600 | 65.67308 | 40980 ft | 507 kts | 98° |
| 2026-05-04 12:48 | 45.52540 | 65.77279 | 40984 ft | 507 kts | 98° |
| 2026-05-04 12:49 | 45.51473 | 65.87221 | 40982 ft | 507 kts | 98° |
| 2026-05-04 12:49 | 45.50395 | 65.97179 | 40987 ft | 508 kts | 98° |
| 2026-05-04 12:50 | 45.49309 | 66.07129 | 40984 ft | 508 kts | 99° |
| 2026-05-04 12:50 | 45.48221 | 66.17018 | 40989 ft | 508 kts | 99° |
| 2026-05-04 12:51 | 45.47118 | 66.26956 | 40977 ft | 507 kts | 99° |
| 2026-05-04 12:51 | 45.46006 | 66.36899 | 40991 ft | 507 kts | 99° |
| 2026-05-04 12:52 | 45.44889 | 66.46811 | 40998 ft | 507 kts | 99° |
| 2026-05-04 12:52 | 45.43768 | 66.56671 | 40994 ft | 507 kts | 99° |
| 2026-05-04 12:53 | 45.42631 | 66.66590 | 40989 ft | 507 kts | 99° |
| 2026-05-04 12:53 | 45.41487 | 66.76496 | 40996 ft | 507 kts | 99° |
| 2026-05-04 12:54 | 45.40335 | 66.86397 | 40990 ft | 507 kts | 99° |
| 2026-05-04 12:54 | 45.39178 | 66.96256 | 41002 ft | 507 kts | 99° |
| 2026-05-04 12:55 | 45.38007 | 67.06162 | 40997 ft | 507 kts | 99° |
| 2026-05-04 12:55 | 45.36827 | 67.16062 | 41000 ft | 507 kts | 99° |
| 2026-05-04 12:56 | 45.35639 | 67.25959 | 41002 ft | 508 kts | 99° |
| 2026-05-04 12:56 | 45.34443 | 67.35852 | 41005 ft | 508 kts | 99° |
| 2026-05-04 12:57 | 45.33235 | 67.45756 | 41007 ft | 508 kts | 99° |
| 2026-05-04 12:57 | 45.32019 | 67.55656 | 41000 ft | 508 kts | 99° |
| 2026-05-04 12:58 | 45.30802 | 67.65498 | 41005 ft | 508 kts | 99° |
| 2026-05-04 12:58 | 45.29569 | 67.75391 | 41009 ft | 509 kts | 99° |
| 2026-05-04 12:59 | 45.28326 | 67.85295 | 41022 ft | 509 kts | 99° |
| 2026-05-04 12:59 | 45.27075 | 67.95184 | 41014 ft | 509 kts | 99° |
| 2026-05-04 13:00 | 45.25814 | 68.05084 | 41009 ft | 509 kts | 99° |
| 2026-05-04 13:00 | 45.24546 | 68.14964 | 41010 ft | 509 kts | 99° |
| 2026-05-04 13:01 | 45.23270 | 68.24839 | 41017 ft | 508 kts | 99° |
| 2026-05-04 13:01 | 45.21986 | 68.34707 | 41019 ft | 508 kts | 99° |
| 2026-05-04 13:02 | 45.20701 | 68.44508 | 41010 ft | 508 kts | 99° |
| 2026-05-04 13:02 | 45.19402 | 68.54351 | 41012 ft | 508 kts | 99° |
| 2026-05-04 13:03 | 45.18095 | 68.64188 | 41005 ft | 507 kts | 100° |
| 2026-05-04 13:03 | 45.16780 | 68.74016 | 41004 ft | 507 kts | 100° |
| 2026-05-04 13:04 | 45.15457 | 68.83838 | 41013 ft | 507 kts | 100° |
| 2026-05-04 13:04 | 45.14126 | 68.93650 | 41004 ft | 507 kts | 100° |
| 2026-05-04 13:05 | 45.12785 | 69.03466 | 41000 ft | 507 kts | 100° |
| 2026-05-04 13:05 | 45.11439 | 69.13257 | 40999 ft | 507 kts | 100° |
| 2026-05-04 13:06 | 45.10092 | 69.22990 | 40998 ft | 507 kts | 100° |
| 2026-05-04 13:06 | 45.08728 | 69.32780 | 41002 ft | 507 kts | 101° |
| 2026-05-04 13:07 | 45.07354 | 69.42576 | 40996 ft | 507 kts | 101° |
| 2026-05-04 13:07 | 45.05972 | 69.52365 | 40999 ft | 507 kts | 101° |
| 2026-05-04 13:08 | 45.04583 | 69.62142 | 40999 ft | 507 kts | 101° |
| 2026-05-04 13:08 | 45.03195 | 69.71842 | 41005 ft | 507 kts | 101° |
| 2026-05-04 13:09 | 45.01788 | 69.81617 | 41002 ft | 507 kts | 101° |
| 2026-05-04 13:09 | 45.00376 | 69.91369 | 41009 ft | 507 kts | 101° |
| 2026-05-04 13:10 | 44.98952 | 70.01137 | 41002 ft | 507 kts | 101° |
| 2026-05-04 13:10 | 44.97532 | 70.10811 | 41004 ft | 497 kts | 101° |
| 2026-05-04 13:11 | 44.96136 | 70.20269 | 41004 ft | 493 kts | 101° |
| 2026-05-04 13:11 | 44.94731 | 70.29730 | 41011 ft | 491 kts | 101° |
| 2026-05-04 13:12 | 44.93325 | 70.39143 | 41018 ft | 490 kts | 101° |
| 2026-05-04 13:12 | 44.91911 | 70.48549 | 41017 ft | 490 kts | 101° |
| 2026-05-04 13:13 | 44.90487 | 70.57972 | 41017 ft | 492 kts | 102° |
| 2026-05-04 13:13 | 44.89046 | 70.67441 | 41024 ft | 494 kts | 102° |
| 2026-05-04 13:14 | 44.87595 | 70.76931 | 41027 ft | 496 kts | 102° |
| 2026-05-04 13:14 | 44.86136 | 70.86409 | 41027 ft | 498 kts | 102° |
| 2026-05-04 13:15 | 44.84658 | 70.95954 | 41023 ft | 499 kts | 102° |
| 2026-05-04 13:15 | 44.83172 | 71.05495 | 41030 ft | 499 kts | 102° |
| 2026-05-04 13:16 | 44.81675 | 71.15054 | 41029 ft | 499 kts | 102° |
| 2026-05-04 13:16 | 44.80172 | 71.24597 | 41028 ft | 499 kts | 102° |
| 2026-05-04 13:17 | 44.78661 | 71.34126 | 41032 ft | 498 kts | 102° |
| 2026-05-04 13:17 | 44.77143 | 71.43653 | 41032 ft | 498 kts | 102° |
| 2026-05-04 13:18 | 44.75631 | 71.53087 | 41035 ft | 498 kts | 102° |
| 2026-05-04 13:18 | 44.74102 | 71.62573 | 41034 ft | 497 kts | 102° |
| 2026-05-04 13:19 | 44.72563 | 71.72063 | 41034 ft | 497 kts | 103° |
| 2026-05-04 13:19 | 44.71018 | 71.81543 | 41035 ft | 497 kts | 103° |
| 2026-05-04 13:20 | 44.69464 | 71.91023 | 41037 ft | 497 kts | 103° |
| 2026-05-04 13:20 | 44.67911 | 72.00441 | 41040 ft | 497 kts | 103° |
| 2026-05-04 13:21 | 44.66343 | 72.09899 | 41039 ft | 497 kts | 103° |
| 2026-05-04 13:21 | 44.64767 | 72.19355 | 41041 ft | 497 kts | 103° |
| 2026-05-04 13:22 | 44.63182 | 72.28808 | 41041 ft | 497 kts | 103° |
| 2026-05-04 13:22 | 44.61590 | 72.38257 | 41050 ft | 497 kts | 103° |
| 2026-05-04 13:23 | 44.59990 | 72.47698 | 41051 ft | 497 kts | 103° |
| 2026-05-04 13:23 | 44.58381 | 72.57144 | 41055 ft | 498 kts | 103° |
| 2026-05-04 13:24 | 44.56762 | 72.66598 | 41055 ft | 498 kts | 104° |
| 2026-05-04 13:24 | 44.55147 | 72.75979 | 41055 ft | 498 kts | 104° |
| 2026-05-04 13:25 | 44.52694 | 72.90130 | 41056 ft | 498 kts | 104° |
| 2026-05-04 13:25 | 44.51046 | 72.99573 | 41059 ft | 498 kts | 104° |
| 2026-05-04 13:26 | 44.49393 | 73.09000 | 41055 ft | 498 kts | 104° |
| 2026-05-04 13:26 | 44.47742 | 73.18359 | 41060 ft | 498 kts | 104° |
| 2026-05-04 13:27 | 44.46075 | 73.27766 | 41067 ft | 498 kts | 104° |
| 2026-05-04 13:27 | 44.44399 | 73.37173 | 41061 ft | 498 kts | 104° |
| 2026-05-04 13:28 | 44.42716 | 73.46571 | 41059 ft | 498 kts | 104° |
| 2026-05-04 13:28 | 44.41026 | 73.55958 | 41064 ft | 498 kts | 104° |
| 2026-05-04 13:29 | 44.39328 | 73.65349 | 41059 ft | 498 kts | 105° |
| 2026-05-04 13:29 | 44.37911 | 73.73140 | 41068 ft | 498 kts | 105° |
| 2026-05-04 13:30 | 44.35915 | 73.84071 | 41070 ft | 498 kts | 105° |
| 2026-05-04 13:30 | 44.34478 | 73.91904 | 41076 ft | 498 kts | 105° |
| 2026-05-04 13:31 | 44.32544 | 74.01171 | 41075 ft | 497 kts | 112° |
| 2026-05-04 13:31 | 44.29858 | 74.10082 | 41080 ft | 497 kts | 114° |
| 2026-05-04 13:32 | 44.27122 | 74.18952 | 41072 ft | 497 kts | 114° |
| 2026-05-04 13:32 | 44.24417 | 74.27842 | 41082 ft | 498 kts | 114° |
| 2026-05-04 13:33 | 44.21726 | 74.36734 | 41082 ft | 498 kts | 114° |
| 2026-05-04 13:33 | 44.19039 | 74.45584 | 41079 ft | 499 kts | 114° |
| 2026-05-04 13:34 | 44.16327 | 74.54479 | 41078 ft | 499 kts | 114° |
| 2026-05-04 13:34 | 44.13603 | 74.63381 | 41078 ft | 499 kts | 114° |
| 2026-05-04 13:35 | 44.09532 | 74.76629 | 40733 ft | 493 kts | 114° |
| 2026-05-04 13:35 | 44.08186 | 74.80992 | 40216 ft | 488 kts | 114° |
| 2026-05-04 13:36 | 44.06849 | 74.85320 | 39718 ft | 484 kts | 115° |
| 2026-05-04 13:36 | 44.05525 | 74.89601 | 39258 ft | 480 kts | 115° |
| 2026-05-04 13:36 | 44.04209 | 74.93847 | 38833 ft | 475 kts | 115° |
| 2026-05-04 13:36 | 44.02908 | 74.98043 | 38353 ft | 471 kts | 115° |
| 2026-05-04 13:37 | 44.01616 | 75.02202 | 37880 ft | 465 kts | 115° |
| 2026-05-04 13:37 | 44.00339 | 75.06304 | 37417 ft | 460 kts | 115° |
| 2026-05-04 13:37 | 43.99073 | 75.10366 | 36936 ft | 456 kts | 115° |
| 2026-05-04 13:37 | 43.97818 | 75.14386 | 36483 ft | 451 kts | 115° |
| 2026-05-04 13:38 | 43.96589 | 75.18313 | 36090 ft | 447 kts | 116° |
| 2026-05-04 13:38 | 43.95358 | 75.22243 | 35679 ft | 442 kts | 116° |
| 2026-05-04 13:38 | 43.94139 | 75.26133 | 35263 ft | 437 kts | 116° |
| 2026-05-04 13:38 | 43.92925 | 75.29998 | 34850 ft | 433 kts | 116° |
| 2026-05-04 13:39 | 43.91728 | 75.33801 | 34454 ft | 428 kts | 116° |
| 2026-05-04 13:39 | 43.90544 | 75.37561 | 34052 ft | 424 kts | 116° |
| 2026-05-04 13:39 | 43.89366 | 75.41294 | 33590 ft | 420 kts | 116° |
| 2026-05-04 13:39 | 43.88196 | 75.44996 | 33065 ft | 418 kts | 116° |
| 2026-05-04 13:40 | 43.87031 | 75.48677 | 32539 ft | 416 kts | 116° |
| 2026-05-04 13:40 | 43.85870 | 75.52339 | 32075 ft | 413 kts | 116° |
| 2026-05-04 13:40 | 43.84720 | 75.55967 | 31616 ft | 410 kts | 115° |
| 2026-05-04 13:40 | 43.83577 | 75.59570 | 31164 ft | 407 kts | 115° |
| 2026-05-04 13:41 | 43.82452 | 75.63104 | 30721 ft | 405 kts | 115° |
| 2026-05-04 13:41 | 43.81399 | 75.66712 | 30224 ft | 404 kts | 107° |
| 2026-05-04 13:41 | 43.81034 | 75.70530 | 29752 ft | 398 kts | 93° |
| 2026-05-04 13:42 | 43.80773 | 75.78121 | 28911 ft | 390 kts | 94° |
| 2026-05-04 13:42 | 43.80619 | 75.81851 | 28509 ft | 387 kts | 94° |
| 2026-05-04 13:42 | 43.80452 | 75.85557 | 28119 ft | 384 kts | 94° |
| 2026-05-04 13:42 | 43.80277 | 75.89226 | 27737 ft | 380 kts | 94° |
| 2026-05-04 13:43 | 43.80098 | 75.92861 | 27351 ft | 377 kts | 94° |
| 2026-05-04 13:43 | 43.79917 | 75.96477 | 26974 ft | 374 kts | 94° |
| 2026-05-04 13:43 | 43.79736 | 76.00062 | 26599 ft | 372 kts | 94° |
| 2026-05-04 13:43 | 43.79555 | 76.03615 | 26229 ft | 369 kts | 94° |
| 2026-05-04 13:44 | 43.79375 | 76.07143 | 25869 ft | 366 kts | 94° |
| 2026-05-04 13:44 | 43.79195 | 76.10645 | 25507 ft | 363 kts | 94° |
| 2026-05-04 13:44 | 43.79019 | 76.14079 | 25153 ft | 361 kts | 94° |
| 2026-05-04 13:44 | 43.78839 | 76.17534 | 24803 ft | 359 kts | 94° |
| 2026-05-04 13:45 | 43.78634 | 76.20965 | 24449 ft | 354 kts | 99° |
| 2026-05-04 13:45 | 43.77821 | 76.24158 | 24096 ft | 354 kts | 123° |
| 2026-05-04 13:45 | 43.76168 | 76.26689 | 23770 ft | 358 kts | 144° |
| 2026-05-04 13:45 | 43.73987 | 76.28368 | 23340 ft | 360 kts | 163° |
| 2026-05-04 13:46 | 43.71576 | 76.29187 | 22956 ft | 355 kts | 169° |
| 2026-05-04 13:46 | 43.69155 | 76.29870 | 22569 ft | 354 kts | 169° |
| 2026-05-04 13:46 | 43.66780 | 76.30548 | 22201 ft | 352 kts | 169° |
| 2026-05-04 13:46 | 43.64392 | 76.31261 | 21832 ft | 350 kts | 168° |
| 2026-05-04 13:47 | 43.62022 | 76.31985 | 21470 ft | 348 kts | 168° |
| 2026-05-04 13:47 | 43.59669 | 76.32711 | 21108 ft | 346 kts | 167° |
| 2026-05-04 13:47 | 43.57320 | 76.33434 | 20741 ft | 345 kts | 167° |
| 2026-05-04 13:47 | 43.54983 | 76.34152 | 20381 ft | 344 kts | 167° |
| 2026-05-04 13:48 | 43.52649 | 76.34868 | 20016 ft | 342 kts | 167° |
| 2026-05-04 13:48 | 43.50326 | 76.35581 | 19649 ft | 342 kts | 167° |
| 2026-05-04 13:48 | 43.48006 | 76.36293 | 19273 ft | 341 kts | 167° |
| 2026-05-04 13:48 | 43.45687 | 76.37003 | 18905 ft | 341 kts | 167° |
| 2026-05-04 13:49 | 43.43372 | 76.37712 | 18525 ft | 341 kts | 167° |
| 2026-05-04 13:49 | 43.41052 | 76.38423 | 18112 ft | 341 kts | 167° |
| 2026-05-04 13:49 | 43.38734 | 76.39132 | 17729 ft | 341 kts | 167° |
| 2026-05-04 13:49 | 43.36425 | 76.39838 | 17323 ft | 340 kts | 167° |
| 2026-05-04 13:50 | 43.34123 | 76.40540 | 16937 ft | 338 kts | 167° |
| 2026-05-04 13:50 | 43.31859 | 76.41311 | 16558 ft | 331 kts | 158° |
| 2026-05-04 13:50 | 43.29943 | 76.42963 | 16200 ft | 325 kts | 133° |
| 2026-05-04 13:50 | 43.28667 | 76.45474 | 15864 ft | 320 kts | 114° |
| 2026-05-04 13:51 | 43.28019 | 76.48319 | 15518 ft | 316 kts | 98° |
| 2026-05-04 13:51 | 43.27727 | 76.51299 | 15180 ft | 313 kts | 95° |
| 2026-05-04 13:51 | 43.27456 | 76.54254 | 14836 ft | 312 kts | 96° |
| 2026-05-04 13:51 | 43.27167 | 76.57197 | 14511 ft | 310 kts | 97° |
| 2026-05-04 13:52 | 43.26629 | 76.63018 | 13807 ft | 300 kts | 88° |
| 2026-05-04 13:52 | 43.27098 | 76.65772 | 13441 ft | 296 kts | 64° |
| 2026-05-04 13:52 | 43.28171 | 76.68152 | 13131 ft | 291 kts | 56° |
| 2026-05-04 13:53 | 43.29327 | 76.70423 | 12784 ft | 289 kts | 55° |
| 2026-05-04 13:53 | 43.30481 | 76.72678 | 12457 ft | 287 kts | 55° |
| 2026-05-04 13:53 | 43.31615 | 76.74895 | 12127 ft | 286 kts | 55° |
| 2026-05-04 13:54 | 43.33891 | 76.79374 | 11443 ft | 284 kts | 56° |
| 2026-05-04 13:54 | 43.35013 | 76.81593 | 11120 ft | 282 kts | 56° |
| 2026-05-04 13:54 | 43.37240 | 76.86014 | 10502 ft | 279 kts | 56° |
| 2026-05-04 13:55 | 43.38341 | 76.88209 | 10227 ft | 277 kts | 55° |
| 2026-05-04 13:55 | 43.40453 | 76.92418 | 9860 ft | 265 kts | 55° |
| 2026-05-04 13:55 | 43.41494 | 76.94498 | 9578 ft | 262 kts | 54° |
| 2026-05-04 13:56 | 43.42523 | 76.96555 | 9305 ft | 259 kts | 54° |
| 2026-05-04 13:56 | 43.43544 | 76.98598 | 9030 ft | 258 kts | 54° |
| 2026-05-04 13:56 | 43.45560 | 77.02633 | 8477 ft | 254 kts | 54° |
| 2026-05-04 13:57 | 43.46556 | 77.04630 | 8210 ft | 252 kts | 53° |
| 2026-05-04 13:57 | 43.47540 | 77.06602 | 7961 ft | 250 kts | 54° |
| 2026-05-04 13:58 | 43.50513 | 77.12572 | 7129 ft | 258 kts | 52° |
| 2026-05-04 13:58 | 43.52561 | 77.16685 | 6575 ft | 260 kts | 53° |
| 2026-05-04 13:58 | 43.53299 | 77.18903 | 6402 ft | 256 kts | 77° |
| 2026-05-04 13:59 | 43.53173 | 77.21321 | 6214 ft | 256 kts | 105° |
| 2026-05-04 13:59 | 43.52288 | 77.23443 | 5943 ft | 257 kts | 130° |
| 2026-05-04 13:59 | 43.49508 | 77.26300 | 5571 ft | 239 kts | 155° |
| 2026-05-04 14:00 | 43.47945 | 77.26695 | 5451 ft | 223 kts | 191° |
| 2026-05-04 14:00 | 43.45558 | 77.24675 | 5275 ft | 198 kts | 234° |
| 2026-05-04 14:00 | 43.44720 | 77.23153 | 5136 ft | 199 kts | 236° |
| 2026-05-04 14:01 | 43.43936 | 77.21617 | 4887 ft | 193 kts | 237° |
| 2026-05-04 14:01 | 43.43191 | 77.20110 | 4622 ft | 187 kts | 238° |
| 2026-05-04 14:01 | 43.41810 | 77.17302 | 4182 ft | 171 kts | 238° |
| 2026-05-04 14:02 | 43.41147 | 77.15955 | 3937 ft | 164 kts | 237° |
| 2026-05-04 14:02 | 43.40519 | 77.14681 | 3762 ft | 162 kts | 236° |
| 2026-05-04 14:02 | 43.39912 | 77.13452 | 3553 ft | 147 kts | 236° |
| 2026-05-04 14:02 | 43.39369 | 77.12353 | 3358 ft | 130 kts | 236° |
| 2026-05-04 14:03 | 43.38878 | 77.11355 | 3219 ft | 124 kts | 237° |
| 2026-05-04 14:03 | 43.38386 | 77.10356 | 3017 ft | 128 kts | 235° |
| 2026-05-04 14:03 | 43.37878 | 77.09331 | 2844 ft | 131 kts | 235° |
| 2026-05-04 14:03 | 43.37364 | 77.08289 | 2648 ft | 133 kts | 236° |
| 2026-05-04 14:04 | 43.36333 | 77.06201 | 2317 ft | 134 kts | 237° |
| 2026-05-04 14:04 | 43.35809 | 77.05150 | 2252 ft | 132 kts | 235° |
| 2026-05-04 14:04 | 43.35372 | 77.04269 | 2227 ft | 82 kts | 236° |
| 2026-05-04 14:05 | 43.34901 | 77.03318 | 2230 ft | 49 kts | 236° |
| 2026-05-04 14:05 | 43.34792 | 77.03016 | 2230 ft | 31 kts | 255° |
| 2026-05-04 14:05 | 43.34782 | 77.02762 | 2231 ft | 23 kts | 270° |
| 2026-05-04 14:06 | 43.34777 | 77.02544 | 2234 ft | 23 kts | 267° |
| 2026-05-04 14:06 | 43.34782 | 77.02344 | 2233 ft | 16 kts | 273° |
| 2026-05-04 14:06 | 43.34788 | 77.02200 | 2233 ft | 16 kts | 273° |
| 2026-05-04 14:06 | 43.34791 | 77.02121 | 2233 ft | 1 kts | 274° |
| 2026-05-04 14:07 | 43.34791 | 77.02110 | 2233 ft | 1 kts | 274° |
| 2026-05-04 14:07 | 43.34792 | 77.02099 | 2233 ft | 1 kts | 274° |
| 2026-05-04 14:07 | 43.34793 | 77.02069 | 2233 ft | 9 kts | 274° |
| 2026-05-04 14:07 | 43.34800 | 77.01920 | 2229 ft | 21 kts | 274° |
| 2026-05-04 14:08 | 43.34809 | 77.01741 | 2227 ft | 14 kts | 274° |
| 2026-05-04 14:08 | 43.34816 | 77.01612 | 2225 ft | 13 kts | 274° |
| 2026-05-04 14:08 | 43.34853 | 77.01517 | 2226 ft | 12 kts | 330° |
| 2026-05-04 14:08 | 43.34909 | 77.01480 | 2231 ft | 5 kts | 336° |
| 2026-05-04 14:09 | 43.34975 | 77.01441 | 2228 ft | 5 kts | 337° |
| 2026-05-04 14:09 | 43.35008 | 77.01422 | 2230 ft | 5 kts | 336° |
| 2026-05-04 14:10 | 43.35036 | 77.01354 | 2231 ft | 5 kts | 247° |
| 2026-05-04 14:10 | 43.35029 | 77.01332 | 2226 ft | 0 kts | 246° |
| 2026-05-04 14:10 | 43.35027 | 77.01325 | 2228 ft | 4 kts | 248° |
| 2026-05-04 14:10 | 43.35021 | 77.01306 | 2233 ft | 0 kts | 248° |
| 2026-05-04 14:11 | 43.35019 | 77.01301 | 2233 ft | 0 kts | 246° |